createdAt,value
2022-12-03T00:00:12.738Z,25.80
2022-12-03T00:02:39.719Z,26.60
2022-12-03T00:05:06.481Z,25.42
2022-12-03T00:07:33.221Z,27.20
2022-12-03T00:09:59.801Z,27.83
2022-12-03T00:12:26.510Z,23.85
2022-12-03T00:14:53.147Z,24.90
2022-12-03T00:17:19.789Z,26.40
2022-12-03T00:19:46.577Z,25.95
2022-12-03T00:22:13.102Z,25.40
2022-12-03T00:24:39.824Z,26.27
2022-12-03T00:27:06.557Z,26.25
2022-12-03T00:29:33.150Z,26.10
2022-12-03T00:31:59.745Z,24.60
2022-12-03T00:34:26.369Z,27.83
2022-12-03T00:36:53.020Z,30.60
2022-12-03T00:39:19.583Z,29.20
2022-12-03T00:41:46.082Z,21.73
2022-12-03T00:44:12.606Z,26.98
2022-12-03T00:46:39.548Z,24.48
2022-12-03T00:49:06.225Z,24.85
2022-12-03T00:51:32.846Z,26.73
2022-12-03T00:53:59.320Z,27.65
2022-12-03T00:56:25.925Z,26.38
2022-12-03T00:58:52.567Z,28.40
2022-12-03T01:01:19.310Z,30.48
2022-12-03T01:03:45.840Z,23.52
2022-12-03T01:06:12.508Z,24.98
2022-12-03T01:08:39.036Z,26.33
2022-12-03T01:11:25.712Z,28.85
2022-12-03T01:13:52.250Z,27.92
2022-12-03T01:16:18.875Z,28.80
2022-12-03T01:18:46.373Z,28.85
2022-12-03T01:21:12.959Z,25.83
2022-12-03T01:23:39.435Z,25.40
2022-12-03T01:26:06.019Z,22.75
2022-12-03T01:28:32.605Z,30.98
2022-12-03T01:31:17.479Z,28.95
2022-12-03T01:33:44.077Z,27.25
2022-12-03T01:36:10.643Z,25.35
2022-12-03T01:38:37.287Z,26.58
2022-12-03T01:41:07.250Z,24.95
2022-12-03T01:43:38.239Z,27.23
2022-12-03T01:46:04.959Z,24.90
2022-12-03T01:48:35.530Z,28.95
2022-12-03T01:51:02.357Z,28.00
2022-12-03T01:53:28.945Z,28.48
2022-12-03T01:55:55.726Z,28.80
2022-12-03T01:58:27.401Z,26.33
2022-12-03T02:00:54.129Z,30.67
2022-12-03T02:03:26.263Z,23.60
2022-12-03T02:05:53.525Z,26.05
2022-12-03T02:08:35.097Z,25.52
2022-12-03T02:11:05.484Z,27.10
2022-12-03T02:13:32.143Z,27.83
2022-12-03T02:15:58.785Z,27.13
2022-12-03T02:18:25.636Z,31.48
2022-12-03T02:21:05.317Z,27.90
2022-12-03T02:23:52.140Z,26.48
2022-12-03T02:26:18.921Z,29.45
2022-12-03T02:28:45.824Z,26.13
2022-12-03T02:31:12.481Z,26.35
2022-12-03T02:33:39.000Z,26.48
2022-12-03T02:36:06.011Z,27.13
2022-12-03T02:38:35.734Z,26.13
2022-12-03T02:41:09.199Z,25.85
2022-12-03T02:43:36.540Z,27.25
2022-12-03T02:46:04.997Z,28.75
2022-12-03T02:48:36.103Z,28.05
2022-12-03T02:51:06.333Z,29.95
2022-12-03T02:53:44.605Z,26.38
2022-12-03T02:56:16.083Z,27.52
2022-12-03T02:58:45.302Z,24.98
2022-12-03T03:01:12.476Z,28.60
2022-12-03T03:03:39.633Z,29.65
2022-12-03T03:06:07.613Z,27.75
2022-12-03T03:08:36.674Z,27.95
2022-12-03T03:11:03.770Z,25.17
2022-12-03T03:13:32.291Z,26.25
2022-12-03T03:15:59.710Z,27.42
2022-12-03T03:18:26.511Z,30.33
2022-12-03T03:20:53.616Z,28.67
2022-12-03T03:23:23.065Z,28.77
2022-12-03T03:26:06.669Z,29.08
2022-12-03T03:28:38.289Z,25.92
2022-12-03T03:31:06.682Z,30.23
2022-12-03T03:33:34.074Z,29.80
2022-12-03T03:36:01.293Z,30.80
2022-12-03T03:38:29.876Z,27.08
2022-12-03T03:40:57.917Z,29.48
2022-12-03T03:43:25.424Z,27.85
2022-12-03T03:45:53.402Z,28.33
2022-12-03T03:48:21.289Z,33.97
2022-12-03T03:50:49.095Z,28.42
2022-12-03T03:53:16.814Z,27.67
2022-12-03T03:55:43.522Z,32.22
2022-12-03T03:58:10.289Z,30.67
2022-12-03T04:00:40.186Z,31.00
2022-12-03T04:03:06.990Z,26.88
2022-12-03T04:05:33.716Z,29.38
2022-12-03T04:08:00.491Z,30.95
2022-12-03T04:10:45.636Z,31.90
2022-12-03T04:13:12.182Z,26.52
2022-12-03T04:15:38.741Z,30.67
2022-12-03T04:18:23.866Z,32.45
2022-12-03T04:20:50.405Z,27.83
2022-12-03T04:23:16.909Z,26.83
2022-12-03T04:26:01.906Z,32.63
2022-12-03T04:28:47.085Z,28.67
2022-12-03T04:31:34.716Z,27.38
2022-12-03T04:34:20.025Z,27.85
2022-12-03T04:36:47.161Z,27.98
2022-12-03T04:39:13.793Z,27.55
2022-12-03T04:41:40.398Z,31.95
2022-12-03T04:44:26.014Z,30.92
2022-12-03T04:46:52.813Z,32.65
2022-12-03T04:49:19.330Z,27.83
2022-12-03T04:51:46.116Z,27.80
2022-12-03T04:54:12.622Z,30.40
2022-12-03T04:56:39.207Z,29.08
2022-12-03T04:59:07.240Z,27.58
2022-12-03T05:01:38.684Z,30.92
2022-12-03T05:04:05.291Z,31.63
2022-12-03T05:06:31.936Z,27.63
2022-12-03T05:08:58.507Z,29.63
2022-12-03T05:11:25.024Z,31.05
2022-12-03T05:13:52.685Z,28.55
2022-12-03T05:16:19.455Z,30.08
2022-12-03T05:18:46.141Z,32.05
2022-12-03T05:21:12.717Z,31.90
2022-12-03T05:23:39.228Z,32.28
2022-12-03T05:26:06.094Z,31.38
2022-12-03T05:28:32.878Z,33.83
2022-12-03T05:30:59.608Z,31.92
2022-12-03T05:33:26.363Z,36.28
2022-12-03T05:35:52.809Z,36.40
2022-12-03T05:38:19.485Z,38.55
2022-12-03T05:40:46.000Z,32.30
2022-12-03T05:43:12.453Z,39.40
2022-12-03T05:45:41.058Z,32.88
2022-12-03T05:48:10.635Z,37.55
2022-12-03T05:50:38.503Z,34.72
2022-12-03T05:53:05.115Z,37.65
2022-12-03T05:55:32.142Z,35.88
2022-12-03T05:57:58.820Z,32.28
2022-12-03T06:00:31.992Z,29.77
2022-12-03T06:02:58.925Z,36.80
2022-12-03T06:05:25.976Z,37.05
2022-12-03T06:07:53.279Z,32.45
2022-12-03T06:10:22.893Z,35.45
2022-12-03T06:12:49.987Z,38.65
2022-12-03T06:15:17.159Z,37.25
2022-12-03T06:17:43.740Z,33.28
2022-12-03T06:20:14.152Z,36.00
2022-12-03T06:22:40.818Z,38.63
2022-12-03T06:25:07.752Z,31.80
2022-12-03T06:27:34.385Z,32.45
2022-12-03T06:30:01.024Z,35.20
2022-12-03T06:32:27.651Z,36.95
2022-12-03T06:34:54.558Z,26.35
2022-12-03T06:37:21.473Z,36.65
2022-12-03T06:39:48.014Z,30.65
2022-12-03T06:42:14.622Z,32.70
2022-12-03T06:44:41.274Z,32.67
2022-12-03T06:47:07.886Z,31.85
2022-12-03T06:49:34.816Z,32.10
2022-12-03T06:52:01.346Z,29.60
2022-12-03T06:54:27.906Z,33.20
2022-12-03T06:56:54.708Z,30.98
2022-12-03T06:59:21.278Z,30.17
2022-12-03T07:01:47.969Z,31.40
2022-12-03T07:04:14.534Z,33.10
2022-12-03T07:06:41.187Z,31.00
2022-12-03T07:09:07.857Z,29.02
2022-12-03T07:11:40.585Z,31.25
2022-12-03T07:14:09.241Z,29.55
2022-12-03T07:16:36.367Z,37.10
2022-12-03T07:19:05.157Z,30.77
2022-12-03T07:21:31.960Z,30.38
2022-12-03T07:23:58.504Z,32.70
2022-12-03T07:26:24.984Z,29.48
2022-12-03T07:28:51.806Z,32.60
2022-12-03T07:31:18.474Z,30.45
2022-12-03T07:33:45.121Z,33.03
2022-12-03T07:36:11.667Z,31.35
2022-12-03T07:38:38.281Z,30.70
2022-12-03T07:41:05.123Z,34.05
2022-12-03T07:43:31.667Z,34.05
2022-12-03T07:45:58.192Z,32.55
2022-12-03T07:48:24.874Z,32.30
2022-12-03T07:50:51.739Z,31.23
2022-12-03T07:53:18.206Z,32.80
2022-12-03T07:55:44.791Z,31.73
2022-12-03T07:58:11.348Z,35.38
2022-12-03T08:00:37.925Z,31.65
2022-12-03T08:03:04.574Z,35.45
2022-12-03T08:05:31.144Z,31.33
2022-12-03T08:07:59.862Z,32.92
2022-12-03T08:10:26.758Z,35.50
2022-12-03T08:12:59.444Z,38.00
2022-12-03T08:15:35.261Z,30.20
2022-12-03T08:18:19.895Z,31.10
2022-12-03T08:20:48.796Z,30.40
2022-12-03T08:23:18.777Z,30.60
2022-12-03T08:25:46.317Z,30.23
2022-12-03T08:28:19.811Z,29.30
2022-12-03T08:31:11.912Z,35.63
2022-12-03T08:33:40.065Z,32.10
2022-12-03T08:36:13.955Z,37.35
2022-12-03T08:38:40.638Z,32.95
2022-12-03T08:41:14.607Z,33.45
2022-12-03T08:43:43.786Z,32.92
2022-12-03T08:46:16.505Z,33.08
2022-12-03T08:48:48.700Z,33.60
2022-12-03T08:51:22.291Z,32.42
2022-12-03T08:54:01.561Z,33.90
2022-12-03T08:56:30.682Z,35.15
2022-12-03T08:59:21.908Z,35.30
2022-12-03T09:01:49.330Z,36.42
2022-12-03T09:04:18.850Z,35.60
2022-12-03T09:06:45.643Z,34.55
2022-12-03T09:09:12.277Z,35.95
2022-12-03T09:11:39.384Z,37.55
2022-12-03T09:14:06.151Z,33.15
2022-12-03T09:16:32.969Z,35.85
2022-12-03T09:18:59.693Z,30.63
2022-12-03T09:21:26.157Z,34.08
2022-12-03T09:23:52.767Z,34.35
2022-12-03T09:26:21.464Z,36.63
2022-12-03T09:28:48.412Z,35.70
2022-12-03T09:31:18.396Z,35.17
2022-12-03T09:33:44.879Z,39.65
2022-12-03T09:36:11.404Z,40.38
2022-12-03T09:38:39.184Z,32.90
2022-12-03T09:41:09.243Z,33.78
2022-12-03T09:44:02.831Z,40.30
2022-12-03T09:46:22.890Z,33.47
2022-12-03T09:48:50.077Z,35.60
2022-12-03T09:51:16.683Z,37.50
2022-12-03T09:53:43.425Z,32.92
2022-12-03T09:56:21.024Z,35.67
2022-12-03T09:58:48.363Z,31.65
2022-12-03T10:01:16.166Z,31.45
2022-12-03T10:03:49.488Z,32.88
2022-12-03T10:06:19.118Z,27.27
2022-12-03T10:08:53.569Z,30.42
2022-12-03T10:11:22.904Z,33.60
2022-12-03T10:13:49.646Z,34.22
2022-12-03T10:16:19.191Z,32.38
2022-12-03T10:18:49.961Z,30.67
2022-12-03T10:21:25.595Z,44.60
2022-12-03T10:24:18.144Z,25.42
2022-12-03T10:26:46.408Z,37.58
2022-12-03T10:29:28.361Z,33.88
2022-12-03T10:31:59.562Z,35.05
2022-12-03T10:34:31.282Z,34.10
2022-12-03T10:37:16.813Z,36.63
2022-12-03T10:40:09.189Z,34.10
2022-12-03T10:42:38.916Z,29.60
2022-12-03T10:45:19.578Z,35.10
2022-12-03T10:48:12.400Z,34.65
2022-12-03T10:50:50.879Z,39.90
2022-12-03T10:53:20.014Z,44.78
2022-12-03T10:55:48.360Z,32.38
2022-12-03T10:58:26.515Z,26.58
2022-12-03T11:00:56.493Z,38.03
2022-12-03T11:03:26.505Z,34.13
2022-12-03T11:05:55.243Z,38.70
2022-12-03T11:08:24.521Z,34.58
2022-12-03T11:11:01.397Z,29.20
2022-12-03T11:13:32.235Z,30.40
2022-12-03T11:16:00.854Z,37.13
2022-12-03T11:18:36.719Z,34.88
2022-12-03T11:21:10.479Z,38.65
2022-12-03T11:23:48.994Z,31.80
2022-12-03T11:26:29.639Z,34.00
2022-12-03T11:28:59.753Z,28.17
2022-12-03T11:31:48.050Z,29.80
2022-12-03T11:34:20.737Z,33.13
2022-12-03T11:37:18.228Z,33.55
2022-12-03T11:39:50.919Z,26.15
2022-12-03T11:42:26.487Z,26.20
2022-12-03T11:45:11.390Z,32.90
2022-12-03T11:47:41.832Z,25.10
2022-12-03T11:50:40.701Z,31.65
2022-12-03T11:53:24.783Z,27.38
2022-12-03T11:56:06.404Z,20.95
2022-12-03T11:58:34.512Z,25.52
2022-12-03T12:01:03.708Z,21.05
2022-12-03T12:03:34.410Z,27.95
2022-12-03T12:06:09.717Z,23.50
2022-12-03T12:08:40.780Z,26.77
2022-12-03T12:11:19.038Z,20.63
2022-12-03T12:13:45.591Z,27.63
2022-12-03T12:16:39.525Z,30.38
2022-12-03T12:19:32.621Z,26.30
2022-12-03T12:22:29.353Z,26.13
2022-12-03T12:24:57.246Z,23.15
2022-12-03T12:27:30.039Z,29.40
2022-12-03T12:29:59.076Z,24.67
2022-12-03T12:32:31.137Z,28.63
2022-12-03T12:35:06.075Z,24.67
2022-12-03T12:37:47.345Z,26.65
2022-12-03T12:40:18.452Z,24.45
2022-12-03T12:42:55.640Z,30.27
2022-12-03T12:45:27.056Z,31.35
2022-12-03T12:48:08.014Z,30.60
2022-12-03T12:50:34.743Z,23.25
2022-12-03T12:53:26.592Z,29.85
2022-12-03T12:56:30.583Z,29.20
2022-12-03T12:59:15.410Z,29.40
2022-12-03T13:01:43.917Z,24.73
2022-12-03T13:04:12.902Z,29.75
2022-12-03T13:06:40.168Z,33.15
2022-12-03T13:09:22.046Z,31.20
2022-12-03T13:12:07.521Z,32.85
2022-12-03T13:14:37.191Z,26.35
2022-12-03T13:17:19.273Z,31.25
2022-12-03T13:19:48.461Z,29.52
2022-12-03T13:22:19.884Z,35.20
2022-12-03T13:24:51.711Z,34.88
2022-12-03T13:27:18.405Z,23.73
2022-12-03T13:29:47.613Z,32.85
2022-12-03T13:32:18.743Z,34.25
2022-12-03T13:34:45.630Z,39.15
2022-12-03T13:37:25.438Z,42.53
2022-12-03T13:40:04.541Z,48.80
2022-12-03T13:42:42.437Z,41.70
2022-12-03T13:45:15.334Z,46.55
2022-12-03T13:47:53.781Z,37.90
2022-12-03T13:50:40.166Z,42.70
2022-12-03T13:53:21.532Z,46.65
2022-12-03T13:55:51.441Z,46.53
2022-12-03T13:58:18.306Z,44.13
2022-12-03T14:00:45.128Z,48.10
2022-12-03T14:03:11.810Z,51.08
2022-12-03T14:05:38.471Z,48.55
2022-12-03T14:08:06.220Z,55.60
2022-12-03T14:10:33.010Z,41.42
2022-12-03T14:12:59.490Z,45.33
2022-12-03T14:15:26.717Z,40.50
2022-12-03T14:17:53.679Z,38.22
2022-12-03T14:20:20.311Z,41.50
2022-12-03T14:22:46.823Z,42.78
2022-12-03T14:25:13.526Z,27.67
2022-12-03T14:27:40.106Z,39.17
2022-12-03T14:30:07.417Z,39.40
2022-12-03T14:32:33.912Z,41.17
2022-12-03T14:35:02.773Z,37.13
2022-12-03T14:39:58.330Z,31.90
2022-12-03T14:42:24.790Z,33.35
2022-12-03T14:44:52.056Z,36.17
2022-12-03T14:47:22.722Z,28.50
2022-12-03T14:49:50.047Z,27.15
2022-12-03T14:52:17.497Z,29.77
2022-12-03T14:54:44.697Z,30.83
2022-12-03T14:57:13.653Z,32.05
2022-12-03T14:59:41.592Z,35.78
2022-12-03T15:02:09.136Z,39.15
2022-12-03T15:04:35.803Z,33.83
2022-12-03T15:07:02.630Z,28.77
2022-12-03T15:09:29.176Z,28.05
2022-12-03T15:11:55.701Z,28.85
2022-12-03T15:14:22.274Z,28.77
2022-12-03T15:16:48.905Z,25.58
2022-12-03T15:19:15.568Z,30.08
2022-12-03T15:21:42.635Z,26.67
2022-12-03T15:24:10.829Z,29.77
2022-12-03T15:26:37.408Z,31.42
2022-12-03T15:29:03.975Z,30.73
2022-12-03T15:31:30.836Z,37.30
2022-12-03T15:33:57.407Z,36.85
2022-12-03T15:36:23.945Z,35.72
2022-12-03T15:38:50.604Z,34.58
2022-12-03T15:41:21.418Z,34.95
2022-12-03T15:43:48.901Z,35.65
2022-12-03T15:46:15.867Z,38.08
2022-12-03T15:48:43.489Z,44.30
2022-12-03T15:51:10.453Z,48.08
2022-12-03T15:53:37.258Z,50.72
2022-12-03T15:56:04.040Z,47.03
2022-12-03T15:58:30.772Z,49.10
2022-12-03T16:00:57.409Z,36.85
2022-12-03T16:03:24.316Z,43.58
2022-12-03T16:05:50.920Z,45.35
2022-12-03T16:08:18.451Z,40.40
2022-12-03T16:10:45.047Z,47.08
2022-12-03T16:13:11.568Z,42.53
2022-12-03T16:15:38.131Z,50.70
2022-12-03T16:18:04.983Z,49.97
2022-12-03T16:20:31.531Z,36.25
2022-12-03T16:22:58.005Z,56.13
2022-12-03T16:25:24.576Z,44.35
2022-12-03T16:27:51.253Z,45.53
2022-12-03T16:30:17.901Z,47.25
2022-12-03T16:32:44.479Z,46.22
2022-12-03T16:35:11.032Z,42.30
2022-12-03T16:37:37.664Z,42.63
2022-12-03T16:40:04.705Z,44.15
2022-12-03T16:42:31.175Z,41.80
2022-12-03T16:45:03.460Z,42.47
2022-12-03T16:47:33.878Z,46.05
2022-12-03T16:50:01.768Z,45.47
2022-12-03T16:52:28.495Z,47.13
2022-12-03T16:54:54.982Z,40.67
2022-12-03T16:57:21.921Z,45.10
2022-12-03T16:59:48.451Z,52.50
2022-12-03T17:02:15.030Z,45.92
2022-12-03T17:04:41.701Z,39.50
2022-12-03T17:07:08.244Z,44.58
2022-12-03T17:09:34.777Z,39.85
2022-12-03T17:12:01.288Z,42.17
2022-12-03T17:14:33.044Z,50.55
2022-12-03T17:17:00.282Z,42.95
2022-12-03T17:19:26.852Z,44.97
2022-12-03T17:21:54.282Z,43.40
2022-12-03T17:24:21.573Z,45.25
2022-12-03T17:26:50.965Z,43.42
2022-12-03T17:29:17.540Z,43.95
2022-12-03T17:31:44.072Z,42.05
2022-12-03T17:34:10.716Z,42.72
2022-12-03T17:36:37.281Z,49.63
2022-12-03T17:39:04.014Z,47.72
2022-12-03T17:41:30.583Z,49.70
2022-12-03T17:43:57.188Z,42.90
2022-12-03T17:46:23.935Z,47.42
2022-12-03T17:48:50.696Z,40.42
2022-12-03T17:51:19.265Z,45.13
2022-12-03T17:53:45.774Z,46.80
2022-12-03T17:56:12.517Z,52.75
2022-12-03T17:58:39.126Z,41.53
2022-12-03T18:01:07.860Z,42.85
2022-12-03T18:03:34.324Z,45.28
2022-12-03T18:06:00.869Z,47.53
2022-12-03T18:08:27.645Z,44.72
2022-12-03T18:10:57.104Z,40.72
2022-12-03T18:13:23.556Z,43.53
2022-12-03T18:15:50.083Z,40.03
2022-12-03T18:18:16.689Z,48.55
2022-12-03T18:20:43.230Z,48.63
2022-12-03T18:23:09.810Z,41.08
2022-12-03T18:25:36.434Z,45.10
2022-12-03T18:28:03.317Z,42.53
2022-12-03T18:30:29.906Z,43.72
2022-12-03T18:32:56.518Z,49.70
2022-12-03T18:35:23.124Z,45.78
2022-12-03T18:37:51.269Z,51.08
2022-12-03T18:40:22.670Z,42.33
2022-12-03T18:42:49.206Z,41.08
2022-12-03T18:45:16.384Z,44.28
2022-12-03T18:47:43.368Z,45.08
2022-12-03T18:50:10.880Z,47.95
2022-12-03T18:52:37.979Z,46.80
2022-12-03T18:55:05.427Z,42.92
2022-12-03T18:57:31.988Z,45.97
2022-12-03T18:59:58.786Z,40.97
2022-12-03T19:03:01.145Z,42.92
2022-12-03T19:05:12.189Z,43.38
2022-12-03T19:07:38.883Z,44.58
2022-12-03T19:10:05.973Z,42.40
2022-12-03T19:12:33.081Z,46.08
2022-12-03T19:14:59.795Z,36.47
2022-12-03T19:17:27.627Z,43.45
2022-12-03T19:19:54.946Z,44.55
2022-12-03T19:22:21.957Z,34.85
2022-12-03T19:24:48.485Z,40.58
2022-12-03T19:27:15.574Z,42.88
2022-12-03T19:29:42.158Z,42.50
2022-12-03T19:32:09.132Z,42.75
2022-12-03T19:34:35.992Z,41.97
2022-12-03T19:37:02.750Z,41.20
2022-12-03T19:39:29.337Z,41.22
2022-12-03T19:41:55.857Z,47.67
2022-12-03T19:44:22.352Z,40.75
2022-12-03T19:46:49.914Z,38.10
2022-12-03T19:49:18.675Z,41.13
2022-12-03T19:51:45.309Z,45.13
2022-12-03T19:54:12.645Z,41.58
2022-12-03T19:56:39.634Z,40.00
2022-12-03T19:59:06.374Z,41.35
2022-12-03T20:01:35.955Z,48.40
2022-12-03T20:04:03.440Z,45.47
2022-12-03T20:06:34.074Z,43.92
2022-12-03T20:09:03.948Z,45.53
2022-12-03T20:11:32.698Z,37.60
2022-12-03T20:14:01.782Z,47.63
2022-12-03T20:16:29.078Z,45.83
2022-12-03T20:19:00.844Z,51.15
2022-12-03T20:21:30.451Z,45.47
2022-12-03T20:23:57.133Z,36.72
2022-12-03T20:26:24.409Z,40.97
2022-12-03T20:28:53.993Z,43.55
2022-12-03T20:31:23.347Z,37.65
2022-12-03T20:33:52.482Z,40.03
2022-12-03T20:36:21.031Z,39.35
2022-12-03T20:38:49.481Z,44.15
2022-12-03T20:41:21.159Z,38.92
2022-12-03T20:43:48.142Z,39.47
2022-12-03T20:46:17.529Z,42.80
2022-12-03T20:48:44.841Z,43.95
2022-12-03T20:51:17.200Z,38.88
2022-12-03T20:53:44.004Z,38.72
2022-12-03T20:56:11.460Z,36.40
2022-12-03T20:58:38.172Z,39.95
2022-12-03T21:01:15.353Z,39.08
2022-12-03T21:03:42.649Z,40.25
2022-12-03T21:06:09.202Z,38.25
2022-12-03T21:08:41.516Z,40.17
2022-12-03T21:11:18.256Z,40.53
2022-12-03T21:13:45.406Z,41.45
2022-12-03T21:16:15.183Z,38.50
2022-12-03T21:18:43.369Z,37.55
2022-12-03T21:21:11.918Z,44.63
2022-12-03T21:23:38.713Z,42.67
2022-12-03T21:26:16.935Z,38.85
2022-12-03T21:28:45.118Z,36.97
2022-12-03T21:31:15.774Z,40.40
2022-12-03T21:33:42.982Z,38.55
2022-12-03T21:36:11.388Z,42.78
2022-12-03T21:38:38.224Z,35.55
2022-12-03T21:41:05.334Z,36.55
2022-12-03T21:43:32.705Z,41.67
2022-12-03T21:45:59.636Z,43.10
2022-12-03T21:48:30.084Z,37.88
2022-12-03T21:51:04.913Z,39.60
2022-12-03T21:53:33.397Z,37.78
2022-12-03T21:56:03.696Z,35.28
2022-12-03T21:58:30.320Z,38.83
2022-12-03T22:00:56.969Z,36.63
2022-12-03T22:03:23.625Z,37.67
2022-12-03T22:05:50.442Z,40.88
2022-12-03T22:08:17.818Z,41.92
2022-12-03T22:10:44.701Z,34.97
2022-12-03T22:13:11.367Z,35.38
2022-12-03T22:15:39.758Z,40.28
2022-12-03T22:18:06.571Z,36.00
2022-12-03T22:20:33.260Z,38.63
2022-12-03T22:23:00.264Z,42.03
2022-12-03T22:25:26.836Z,39.88
2022-12-03T22:27:53.425Z,44.20
2022-12-03T22:30:19.989Z,40.28
2022-12-03T22:32:46.642Z,41.22
2022-12-03T22:35:13.267Z,40.13
2022-12-03T22:37:39.984Z,40.97
2022-12-03T22:40:07.048Z,43.58
2022-12-03T22:42:33.710Z,42.95
2022-12-03T22:45:01.510Z,43.10
2022-12-03T22:47:28.423Z,42.03
2022-12-03T22:49:55.196Z,45.45
2022-12-03T22:52:22.007Z,39.78
2022-12-03T22:54:48.627Z,43.60
2022-12-03T22:57:18.345Z,44.85
2022-12-03T22:59:44.868Z,43.60
2022-12-03T23:02:11.559Z,40.75
2022-12-03T23:04:38.153Z,48.45
2022-12-03T23:07:06.144Z,44.10
2022-12-03T23:09:32.732Z,43.40
2022-12-03T23:11:59.321Z,50.55
2022-12-03T23:14:25.853Z,44.40
2022-12-03T23:16:52.686Z,45.15
2022-12-03T23:19:20.045Z,46.75
2022-12-03T23:21:46.589Z,46.92
2022-12-03T23:24:13.135Z,50.95
2022-12-03T23:26:39.749Z,44.72
2022-12-03T23:29:06.583Z,40.03
2022-12-03T23:31:33.921Z,41.40
2022-12-03T23:34:01.319Z,42.70
2022-12-03T23:36:30.158Z,41.80
2022-12-03T23:38:57.592Z,42.75
2022-12-03T23:41:24.986Z,42.05
2022-12-03T23:43:52.038Z,42.05
2022-12-03T23:46:22.105Z,48.90
2022-12-03T23:48:50.188Z,42.60
2022-12-03T23:51:23.330Z,44.03
2022-12-03T23:53:50.661Z,43.20
2022-12-03T23:56:20.480Z,44.67
2022-12-03T23:58:47.553Z,53.42
